sensor_id;sensor_type;location;lat;lon;timestamp;pressure;altitude;pressure_sealevel;temperature;humidity
65718;BME280;52445;52.466;-1.016;2023-08-06T00:01:17;99910.50;;;11.57;76.87
65718;BME280;52445;52.466;-1.016;2023-08-06T00:03:47;99920.00;;;11.55;77.72
65718;BME280;52445;52.466;-1.016;2023-08-06T00:06:14;99921.78;;;11.53;77.72
65718;BME280;52445;52.466;-1.016;2023-08-06T00:08:41;99921.81;;;11.49;77.50
65718;BME280;52445;52.466;-1.016;2023-08-06T00:11:07;99921.81;;;11.49;77.85
65718;BME280;52445;52.466;-1.016;2023-08-06T00:13:34;99920.94;;;11.45;77.24
65718;BME280;52445;52.466;-1.016;2023-08-06T00:16:17;99921.03;;;11.39;77.05
65718;BME280;52445;52.466;-1.016;2023-08-06T00:18:43;99918.41;;;11.40;76.76
65718;BME280;52445;52.466;-1.016;2023-08-06T00:21:10;99926.22;;;11.36;76.56
65718;BME280;52445;52.466;-1.016;2023-08-06T00:23:41;99926.22;;;11.36;76.95
65718;BME280;52445;52.466;-1.016;2023-08-06T00:26:08;99929.72;;;11.33;77.70
65718;BME280;52445;52.466;-1.016;2023-08-06T00:28:36;99933.19;;;11.30;76.79
65718;BME280;52445;52.466;-1.016;2023-08-06T00:31:04;99928.91;;;11.28;77.77
65718;BME280;52445;52.466;-1.016;2023-08-06T00:33:31;99923.72;;;11.25;77.26
65718;BME280;52445;52.466;-1.016;2023-08-06T00:36:00;99924.63;;;11.22;76.92
65718;BME280;52445;52.466;-1.016;2023-08-06T00:38:28;99924.63;;;11.19;76.78
65718;BME280;52445;52.466;-1.016;2023-08-06T00:40:55;99922.91;;;11.18;77.76
65718;BME280;52445;52.466;-1.016;2023-08-06T00:43:23;99927.25;;;11.14;77.39
65718;BME280;52445;52.466;-1.016;2023-08-06T00:45:51;99926.38;;;11.14;77.73
65718;BME280;52445;52.466;-1.016;2023-08-06T00:48:20;99922.06;;;11.11;77.02
65718;BME280;52445;52.466;-1.016;2023-08-06T00:50:48;99933.34;;;11.09;77.54
65718;BME280;52445;52.466;-1.016;2023-08-06T00:53:17;99932.50;;;11.07;77.60
65718;BME280;52445;52.466;-1.016;2023-08-06T00:55:46;99933.34;;;11.05;77.96
65718;BME280;52445;52.466;-1.016;2023-08-06T00:58:17;99930.75;;;11.05;76.62
65718;BME280;52445;52.466;-1.016;2023-08-06T01:00:45;99929.94;;;11.00;77.86
65718;BME280;52445;52.466;-1.016;2023-08-06T01:03:13;99924.75;;;11.00;77.24
65718;BME280;52445;52.466;-1.016;2023-08-06T01:05:40;99933.41;;;10.99;77.86
65718;BME280;52445;52.466;-1.016;2023-08-06T01:11:22;99931.72;;;10.92;77.24
65718;BME280;52445;52.466;-1.016;2023-08-06T01:13:55;99933.44;;;10.93;77.13
65718;BME280;52445;52.466;-1.016;2023-08-06T01:16:25;99936.91;;;10.92;78.28
65718;BME280;52445;52.466;-1.016;2023-08-06T01:18:52;99934.31;;;10.90;76.93
65718;BME280;52445;52.466;-1.016;2023-08-06T01:21:19;99937.78;;;10.91;78.04
65718;BME280;52445;52.466;-1.016;2023-08-06T01:23:46;99943.81;;;10.90;77.94
65718;BME280;52445;52.466;-1.016;2023-08-06T01:26:35;99936.09;;;10.82;77.92
65718;BME280;52445;52.466;-1.016;2023-08-06T01:29:16;99944.72;;;10.83;77.35
65718;BME280;52445;52.466;-1.016;2023-08-06T01:31:48;99945.59;;;10.83;77.55
65718;BME280;52445;52.466;-1.016;2023-08-06T01:34:18;99949.03;;;10.84;77.78
65718;BME280;52445;52.466;-1.016;2023-08-06T01:36:47;99954.25;;;10.80;78.27
65718;BME280;52445;52.466;-1.016;2023-08-06T01:39:14;99950.78;;;10.80;77.57
65718;BME280;52445;52.466;-1.016;2023-08-06T01:41:40;99963.72;;;10.82;77.19
65718;BME280;52445;52.466;-1.016;2023-08-06T01:44:07;99961.13;;;10.80;77.95
65718;BME280;52445;52.466;-1.016;2023-08-06T01:46:34;99968.91;;;10.80;77.57
65718;BME280;52445;52.466;-1.016;2023-08-06T01:49:00;99968.06;;;10.79;78.03
65718;BME280;52445;52.466;-1.016;2023-08-06T01:51:27;99973.25;;;10.78;78.21
65718;BME280;52445;52.466;-1.016;2023-08-06T01:53:54;99979.31;;;10.75;77.25
65718;BME280;52445;52.466;-1.016;2023-08-06T01:56:20;99984.50;;;10.75;77.46
65718;BME280;52445;52.466;-1.016;2023-08-06T01:58:47;99983.63;;;10.73;78.10
65718;BME280;52445;52.466;-1.016;2023-08-06T02:01:14;99985.34;;;10.74;78.28
65718;BME280;52445;52.466;-1.016;2023-08-06T02:03:41;99989.69;;;10.74;77.75
65718;BME280;52445;52.466;-1.016;2023-08-06T02:06:07;99987.94;;;10.73;77.53
65718;BME280;52445;52.466;-1.016;2023-08-06T02:08:34;99985.34;;;10.71;78.26
65718;BME280;52445;52.466;-1.016;2023-08-06T02:11:01;99990.53;;;10.71;77.51
65718;BME280;52445;52.466;-1.016;2023-08-06T02:13:29;99990.56;;;10.68;78.10
65718;BME280;52445;52.466;-1.016;2023-08-06T02:15:55;99992.28;;;10.69;78.48
65718;BME280;52445;52.466;-1.016;2023-08-06T02:18:22;99990.56;;;10.68;78.26
65718;BME280;52445;52.466;-1.016;2023-08-06T02:20:57;99989.69;;;10.64;77.69
65718;BME280;52445;52.466;-1.016;2023-08-06T02:23:25;99991.44;;;10.65;77.53
65718;BME280;52445;52.466;-1.016;2023-08-06T02:26:08;99984.53;;;10.61;77.64
65718;BME280;52445;52.466;-1.016;2023-08-06T02:28:34;99988.84;;;10.64;78.16
65718;BME280;52445;52.466;-1.016;2023-08-06T02:31:01;99988.00;;;10.63;77.27
65718;BME280;52445;52.466;-1.016;2023-08-06T02:33:28;99985.41;;;10.62;77.81
65718;BME280;52445;52.466;-1.016;2023-08-06T02:36:00;99979.38;;;10.60;78.12
65718;BME280;52445;52.466;-1.016;2023-08-06T02:38:27;99980.22;;;10.59;77.81
65718;BME280;52445;52.466;-1.016;2023-08-06T02:40:54;99997.50;;;10.60;77.65
65718;BME280;52445;52.466;-1.016;2023-08-06T02:43:21;99985.41;;;10.59;78.04
65718;BME280;52445;52.466;-1.016;2023-08-06T02:45:47;99994.06;;;10.58;77.42
65718;BME280;52445;52.466;-1.016;2023-08-06T02:48:14;99991.47;;;10.53;78.10
65718;BME280;52445;52.466;-1.016;2023-08-06T02:50:41;99999.25;;;10.51;78.10
65718;BME280;52445;52.466;-1.016;2023-08-06T02:53:08;99994.09;;;10.48;77.90
65718;BME280;52445;52.466;-1.016;2023-08-06T02:55:35;99991.50;;;10.48;77.55
65718;BME280;52445;52.466;-1.016;2023-08-06T02:58:02;99988.91;;;10.47;78.35
65718;BME280;52445;52.466;-1.016;2023-08-06T03:00:28;99992.34;;;10.44;77.45
65718;BME280;52445;52.466;-1.016;2023-08-06T03:02:55;99990.59;;;10.43;78.13
65718;BME280;52445;52.466;-1.016;2023-08-06T03:05:22;99993.19;;;10.40;77.89
65718;BME280;52445;52.466;-1.016;2023-08-06T03:07:48;99994.06;;;10.40;78.53
65718;BME280;52445;52.466;-1.016;2023-08-06T03:10:15;99992.34;;;10.41;78.50
65718;BME280;52445;52.466;-1.016;2023-08-06T03:12:42;99995.78;;;10.40;78.42
65718;BME280;52445;52.466;-1.016;2023-08-06T03:15:09;99997.53;;;10.41;78.03
65718;BME280;52445;52.466;-1.016;2023-08-06T03:17:35;99997.53;;;10.41;78.03
65718;BME280;52445;52.466;-1.016;2023-08-06T03:20:02;99988.06;;;10.38;78.29
65718;BME280;52445;52.466;-1.016;2023-08-06T03:22:29;99988.91;;;10.39;77.91
65718;BME280;52445;52.466;-1.016;2023-08-06T03:24:56;99994.94;;;10.38;78.21
65718;BME280;52445;52.466;-1.016;2023-08-06T03:27:22;99995.81;;;10.37;78.01
65718;BME280;52445;52.466;-1.016;2023-08-06T03:29:49;99995.81;;;10.37;77.77
65718;BME280;52445;52.466;-1.016;2023-08-06T03:32:16;99989.78;;;10.35;78.60
65718;BME280;52445;52.466;-1.016;2023-08-06T03:34:43;99994.94;;;10.35;78.29
65718;BME280;52445;52.466;-1.016;2023-08-06T03:37:10;99997.53;;;10.35;77.85
65718;BME280;52445;52.466;-1.016;2023-08-06T03:39:36;99994.94;;;10.32;78.60
65718;BME280;52445;52.466;-1.016;2023-08-06T03:42:03;99998.41;;;10.32;77.60
65718;BME280;52445;52.466;-1.016;2023-08-06T03:44:30;100006.19;;;10.31;78.44
65718;BME280;52445;52.466;-1.016;2023-08-06T03:46:57;100006.19;;;10.31;78.09
65718;BME280;52445;52.466;-1.016;2023-08-06T03:49:24;100012.22;;;10.26;78.54
65718;BME280;52445;52.466;-1.016;2023-08-06T03:51:50;100002.75;;;10.25;77.83
65718;BME280;52445;52.466;-1.016;2023-08-06T03:54:17;100002.75;;;10.25;78.07
65718;BME280;52445;52.466;-1.016;2023-08-06T03:56:44;100005.34;;;10.21;78.84
65718;BME280;52445;52.466;-1.016;2023-08-06T03:59:11;100018.28;;;10.22;77.96
65718;BME280;52445;52.466;-1.016;2023-08-06T04:01:37;100011.38;;;10.20;77.91
65718;BME280;52445;52.466;-1.016;2023-08-06T04:04:04;100016.56;;;10.21;78.18
65718;BME280;52445;52.466;-1.016;2023-08-06T04:06:31;100020.03;;;10.17;79.00
65718;BME280;52445;52.466;-1.016;2023-08-06T04:08:57;100024.31;;;10.18;77.92
65718;BME280;52445;52.466;-1.016;2023-08-06T04:11:24;100024.31;;;10.15;78.85
65718;BME280;52445;52.466;-1.016;2023-08-06T04:13:53;100021.75;;;10.15;78.54
65718;BME280;52445;52.466;-1.016;2023-08-06T04:16:21;100022.63;;;10.15;78.95
65718;BME280;52445;52.466;-1.016;2023-08-06T04:18:48;100025.19;;;10.14;78.64
65718;BME280;52445;52.466;-1.016;2023-08-06T04:21:15;100020.03;;;10.14;78.77
65718;BME280;52445;52.466;-1.016;2023-08-06T04:23:41;100024.31;;;10.13;78.63
65718;BME280;52445;52.466;-1.016;2023-08-06T04:26:08;100021.75;;;10.15;78.86
65718;BME280;52445;52.466;-1.016;2023-08-06T04:28:35;100028.63;;;10.16;78.21
65718;BME280;52445;52.466;-1.016;2023-08-06T04:31:01;100032.09;;;10.15;78.53
65718;BME280;52445;52.466;-1.016;2023-08-06T04:33:28;100028.63;;;10.13;78.20
65718;BME280;52445;52.466;-1.016;2023-08-06T04:35:55;100034.69;;;10.15;79.16
65718;BME280;52445;52.466;-1.016;2023-08-06T04:38:24;100036.41;;;10.16;78.98
65718;BME280;52445;52.466;-1.016;2023-08-06T04:40:52;100032.09;;;10.12;78.72
65718;BME280;52445;52.466;-1.016;2023-08-06T04:43:19;100038.97;;;10.13;78.99
65718;BME280;52445;52.466;-1.016;2023-08-06T04:45:46;100041.56;;;10.16;78.92
65718;BME280;52445;52.466;-1.016;2023-08-06T04:48:14;100047.63;;;10.15;78.39
65718;BME280;52445;52.466;-1.016;2023-08-06T04:50:45;100040.72;;;10.14;77.72
65718;BME280;52445;52.466;-1.016;2023-08-06T04:53:12;100046.75;;;10.13;79.11
65718;BME280;52445;52.466;-1.016;2023-08-06T04:55:39;100045.91;;;10.11;78.62
65718;BME280;52445;52.466;-1.016;2023-08-06T04:58:05;100060.56;;;10.12;79.38
65718;BME280;52445;52.466;-1.016;2023-08-06T05:00:33;100051.09;;;10.14;78.42
65718;BME280;52445;52.466;-1.016;2023-08-06T05:03:00;100056.25;;;10.12;79.62
65718;BME280;52445;52.466;-1.016;2023-08-06T05:05:28;100062.28;;;10.16;79.46
65718;BME280;52445;52.466;-1.016;2023-08-06T05:07:56;100064.00;;;10.19;79.36
65718;BME280;52445;52.466;-1.016;2023-08-06T05:10:25;100073.50;;;10.21;79.55
65718;BME280;52445;52.466;-1.016;2023-08-06T05:12:53;100063.16;;;10.21;79.53
65718;BME280;52445;52.466;-1.016;2023-08-06T05:15:19;100067.47;;;10.22;79.37
65718;BME280;52445;52.466;-1.016;2023-08-06T05:17:46;100069.19;;;10.25;79.00
65718;BME280;52445;52.466;-1.016;2023-08-06T05:20:13;100074.38;;;10.28;79.05
65718;BME280;52445;52.466;-1.016;2023-08-06T05:22:44;100077.78;;;10.32;79.04
65718;BME280;52445;52.466;-1.016;2023-08-06T05:25:13;100079.50;;;10.39;79.81
65718;BME280;52445;52.466;-1.016;2023-08-06T05:27:40;100076.94;;;10.39;80.09
65718;BME280;52445;52.466;-1.016;2023-08-06T05:30:07;100082.09;;;10.54;79.55
65718;BME280;52445;52.466;-1.016;2023-08-06T05:32:34;100080.34;;;10.63;79.83
65718;BME280;52445;52.466;-1.016;2023-08-06T05:35:01;100090.72;;;10.72;80.12
65718;BME280;52445;52.466;-1.016;2023-08-06T05:37:28;100081.19;;;10.80;79.55
65718;BME280;52445;52.466;-1.016;2023-08-06T05:39:54;100095.84;;;10.91;80.51
65718;BME280;52445;52.466;-1.016;2023-08-06T05:42:21;100093.22;;;10.94;80.26
65718;BME280;52445;52.466;-1.016;2023-08-06T05:44:48;100098.38;;;11.05;79.75
65718;BME280;52445;52.466;-1.016;2023-08-06T05:47:14;100091.38;;;11.21;79.47
65718;BME280;52445;52.466;-1.016;2023-08-06T05:49:41;100101.72;;;11.32;80.22
65718;BME280;52445;52.466;-1.016;2023-08-06T05:52:07;100105.97;;;11.41;80.66
65718;BME280;52445;52.466;-1.016;2023-08-06T05:54:34;100103.34;;;11.55;80.60
65718;BME280;52445;52.466;-1.016;2023-08-06T05:57:01;100109.31;;;11.65;78.98
65718;BME280;52445;52.466;-1.016;2023-08-06T05:59:28;100108.38;;;11.78;79.14
65718;BME280;52445;52.466;-1.016;2023-08-06T06:01:54;100110.84;;;11.94;79.01
65718;BME280;52445;52.466;-1.016;2023-08-06T06:04:21;100117.69;;;12.04;80.24
65718;BME280;52445;52.466;-1.016;2023-08-06T06:06:48;100126.31;;;12.16;78.92
65718;BME280;52445;52.466;-1.016;2023-08-06T06:09:15;100126.22;;;12.25;78.56
65718;BME280;52445;52.466;-1.016;2023-08-06T06:11:41;100133.16;;;12.23;77.77
65718;BME280;52445;52.466;-1.016;2023-08-06T06:14:08;100128.84;;;12.19;78.63
65718;BME280;52445;52.466;-1.016;2023-08-06T06:16:35;100137.53;;;12.13;77.76
65718;BME280;52445;52.466;-1.016;2023-08-06T06:19:01;100123.75;;;12.10;77.92
65718;BME280;52445;52.466;-1.016;2023-08-06T06:21:28;100123.72;;;12.11;78.69
65718;BME280;52445;52.466;-1.016;2023-08-06T06:23:54;100126.31;;;12.16;78.72
65718;BME280;52445;52.466;-1.016;2023-08-06T06:26:22;100131.44;;;12.22;77.50
65718;BME280;52445;52.466;-1.016;2023-08-06T06:28:49;100133.09;;;12.29;78.48
65718;BME280;52445;52.466;-1.016;2023-08-06T06:31:16;100139.06;;;12.39;78.93
65718;BME280;52445;52.466;-1.016;2023-08-06T06:33:42;100138.97;;;12.50;78.48
65718;BME280;52445;52.466;-1.016;2023-08-06T06:36:09;100134.53;;;12.62;78.41
65718;BME280;52445;52.466;-1.016;2023-08-06T06:38:36;100143.91;;;12.78;77.73
65718;BME280;52445;52.466;-1.016;2023-08-06T06:41:03;100139.38;;;12.96;77.72
65718;BME280;52445;52.466;-1.016;2023-08-06T06:43:29;100149.72;;;13.04;78.12
65718;BME280;52445;52.466;-1.016;2023-08-06T06:45:57;100152.19;;;13.13;77.12
65718;BME280;52445;52.466;-1.016;2023-08-06T06:48:27;100152.97;;;13.20;77.29
65718;BME280;52445;52.466;-1.016;2023-08-06T06:50:54;100150.31;;;13.24;77.66
65718;BME280;52445;52.466;-1.016;2023-08-06T06:53:21;100160.63;;;13.34;77.73
65718;BME280;52445;52.466;-1.016;2023-08-06T06:55:54;100162.31;;;13.40;76.75
65718;BME280;52445;52.466;-1.016;2023-08-06T06:58:21;100161.31;;;13.47;76.56
65718;BME280;52445;52.466;-1.016;2023-08-06T07:00:48;100158.66;;;13.56;76.77
65718;BME280;52445;52.466;-1.016;2023-08-06T07:03:15;100157.59;;;13.70;76.76
65718;BME280;52445;52.466;-1.016;2023-08-06T07:05:43;100167.69;;;13.93;77.08
65718;BME280;52445;52.466;-1.016;2023-08-06T07:08:10;100159.56;;;14.13;76.27
65718;BME280;52445;52.466;-1.016;2023-08-06T07:10:38;100167.78;;;14.40;76.70
65718;BME280;52445;52.466;-1.016;2023-08-06T07:13:07;100168.44;;;14.55;75.66
65718;BME280;52445;52.466;-1.016;2023-08-06T07:15:34;100176.16;;;14.61;75.85
65718;BME280;52445;52.466;-1.016;2023-08-06T07:18:01;100171.75;;;14.63;75.98
65718;BME280;52445;52.466;-1.016;2023-08-06T07:20:27;100176.91;;;14.67;75.55
65718;BME280;52445;52.466;-1.016;2023-08-06T07:22:58;100176.06;;;14.66;75.32
65718;BME280;52445;52.466;-1.016;2023-08-06T07:25:25;100179.41;;;14.74;75.50
65718;BME280;52445;52.466;-1.016;2023-08-06T07:27:52;100174.09;;;14.81;75.47
65718;BME280;52445;52.466;-1.016;2023-08-06T07:30:19;100182.59;;;14.90;74.62
65718;BME280;52445;52.466;-1.016;2023-08-06T07:32:45;100178.06;;;15.00;74.63
65718;BME280;52445;52.466;-1.016;2023-08-06T07:35:12;100184.09;;;15.04;74.01
65718;BME280;52445;52.466;-1.016;2023-08-06T07:37:41;100186.66;;;15.07;73.82
65718;BME280;52445;52.466;-1.016;2023-08-06T07:40:08;100191.75;;;15.13;73.77
65718;BME280;52445;52.466;-1.016;2023-08-06T07:42:35;100194.31;;;15.15;73.72
65718;BME280;52445;52.466;-1.016;2023-08-06T07:45:02;100198.56;;;15.21;73.76
65718;BME280;52445;52.466;-1.016;2023-08-06T07:47:29;100195.75;;;15.30;73.25
65718;BME280;52445;52.466;-1.016;2023-08-06T07:49:56;100192.94;;;15.42;73.10
65718;BME280;52445;52.466;-1.016;2023-08-06T07:52:22;100195.25;;;15.57;72.79
65718;BME280;52445;52.466;-1.016;2023-08-06T07:54:49;100193.31;;;15.65;72.66
65718;BME280;52445;52.466;-1.016;2023-08-06T07:57:16;100206.13;;;15.76;72.73
65718;BME280;52445;52.466;-1.016;2023-08-06T07:59:43;100204.31;;;15.81;72.18
65718;BME280;52445;52.466;-1.016;2023-08-06T08:02:09;100209.41;;;15.86;71.96
65718;BME280;52445;52.466;-1.016;2023-08-06T08:04:36;100214.59;;;15.87;72.33
65718;BME280;52445;52.466;-1.016;2023-08-06T08:07:03;100214.59;;;15.87;72.14
65718;BME280;52445;52.466;-1.016;2023-08-06T08:09:30;100218.16;;;15.83;71.35
65718;BME280;52445;52.466;-1.016;2023-08-06T08:11:56;100218.03;;;15.89;71.95
65718;BME280;52445;52.466;-1.016;2023-08-06T08:14:26;100215.31;;;15.96;71.32
65718;BME280;52445;52.466;-1.016;2023-08-06T08:16:53;100213.28;;;16.09;71.28
65718;BME280;52445;52.466;-1.016;2023-08-06T08:19:20;100214.84;;;16.17;70.99
65718;BME280;52445;52.466;-1.016;2023-08-06T08:21:47;100222.44;;;16.27;70.95
65718;BME280;52445;52.466;-1.016;2023-08-06T08:24:14;100215.28;;;16.35;70.72
65718;BME280;52445;52.466;-1.016;2023-08-06T08:26:40;100209.97;;;16.38;70.64
65718;BME280;52445;52.466;-1.016;2023-08-06T08:29:07;100220.44;;;16.38;70.24
65718;BME280;52445;52.466;-1.016;2023-08-06T08:31:34;100207.50;;;16.34;69.97
65718;BME280;52445;52.466;-1.016;2023-08-06T08:34:05;100215.28;;;16.35;69.99
65718;BME280;52445;52.466;-1.016;2023-08-06T08:36:32;100213.50;;;16.37;70.04
65718;BME280;52445;52.466;-1.016;2023-08-06T08:38:59;100206.50;;;16.39;69.28
65718;BME280;52445;52.466;-1.016;2023-08-06T08:41:28;100211.59;;;16.44;69.55
65718;BME280;52445;52.466;-1.016;2023-08-06T08:43:56;100215.00;;;16.48;69.53
65718;BME280;52445;52.466;-1.016;2023-08-06T08:46:26;100218.28;;;16.56;69.44
65718;BME280;52445;52.466;-1.016;2023-08-06T08:48:54;100222.63;;;16.55;68.23
65718;BME280;52445;52.466;-1.016;2023-08-06T08:51:23;100219.03;;;16.60;67.92
65718;BME280;52445;52.466;-1.016;2023-08-06T08:53:52;100219.81;;;16.65;68.11
65718;BME280;52445;52.466;-1.016;2023-08-06T08:56:21;100231.88;;;16.70;68.81
65718;BME280;52445;52.466;-1.016;2023-08-06T08:58:48;100222.94;;;16.78;68.63
65718;BME280;52445;52.466;-1.016;2023-08-06T09:01:15;100230.44;;;16.92;67.76
65718;BME280;52445;52.466;-1.016;2023-08-06T09:03:43;100230.91;;;17.08;67.91
65718;BME280;52445;52.466;-1.016;2023-08-06T09:06:12;100228.84;;;17.21;67.55
65718;BME280;52445;52.466;-1.016;2023-08-06T09:08:41;100223.28;;;17.32;67.06
65718;BME280;52445;52.466;-1.016;2023-08-06T09:11:10;100228.28;;;17.41;66.92
65718;BME280;52445;52.466;-1.016;2023-08-06T09:13:37;100236.84;;;17.46;66.99
65718;BME280;52445;52.466;-1.016;2023-08-06T09:16:04;100235.91;;;17.49;66.82
65718;BME280;52445;52.466;-1.016;2023-08-06T09:18:31;100238.34;;;17.55;66.73
65718;BME280;52445;52.466;-1.016;2023-08-06T09:20:58;100233.06;;;17.57;66.12
65718;BME280;52445;52.466;-1.016;2023-08-06T09:23:29;100240.91;;;17.58;65.85
65718;BME280;52445;52.466;-1.016;2023-08-06T09:25:57;100240.81;;;17.62;66.03
65718;BME280;52445;52.466;-1.016;2023-08-06T09:28:24;100233.88;;;17.59;65.45
65718;BME280;52445;52.466;-1.016;2023-08-06T09:30:52;100245.09;;;17.64;64.44
65718;BME280;52445;52.466;-1.016;2023-08-06T09:33:22;100242.19;;;17.73;64.83
65718;BME280;52445;52.466;-1.016;2023-08-06T09:35:49;100244.34;;;17.89;64.77
65718;BME280;52445;52.466;-1.016;2023-08-06T09:38:16;100245.94;;;17.95;63.79
65718;BME280;52445;52.466;-1.016;2023-08-06T09:40:43;100241.34;;;18.02;63.56
65718;BME280;52445;52.466;-1.016;2023-08-06T09:43:11;100240.28;;;18.09;62.86
65718;BME280;52445;52.466;-1.016;2023-08-06T09:45:38;100248.59;;;18.23;62.20
65718;BME280;52445;52.466;-1.016;2023-08-06T09:48:06;100248.09;;;18.39;61.89
65718;BME280;52445;52.466;-1.016;2023-08-06T09:50:37;100243.22;;;18.55;60.39
65718;BME280;52445;52.466;-1.016;2023-08-06T09:53:06;100252.25;;;18.73;60.83
65718;BME280;52445;52.466;-1.016;2023-08-06T09:55:33;100246.75;;;18.80;58.83
65718;BME280;52445;52.466;-1.016;2023-08-06T09:58:00;100248.88;;;18.95;59.78
65718;BME280;52445;52.466;-1.016;2023-08-06T10:00:28;100254.63;;;19.07;58.83
65718;BME280;52445;52.466;-1.016;2023-08-06T10:02:59;100251.69;;;19.16;57.42
65718;BME280;52445;52.466;-1.016;2023-08-06T10:05:26;100257.19;;;19.34;57.64
65718;BME280;52445;52.466;-1.016;2023-08-06T10:07:53;100258.22;;;19.53;57.29
65718;BME280;52445;52.466;-1.016;2023-08-06T10:10:22;100256.31;;;19.59;56.52
65718;BME280;52445;52.466;-1.016;2023-08-06T10:12:52;100265.03;;;19.59;55.48
65718;BME280;52445;52.466;-1.016;2023-08-06T10:15:25;100260.28;;;19.69;56.58
65718;BME280;52445;52.466;-1.016;2023-08-06T10:17:56;100255.72;;;19.74;55.66
65718;BME280;52445;52.466;-1.016;2023-08-06T10:20:23;100257.16;;;19.83;55.67
65718;BME280;52445;52.466;-1.016;2023-08-06T10:23:00;100270.91;;;19.90;55.97
65718;BME280;52445;52.466;-1.016;2023-08-06T10:25:30;100268.84;;;19.98;56.06
65718;BME280;52445;52.466;-1.016;2023-08-06T10:27:58;100265.69;;;20.12;56.14
65718;BME280;52445;52.466;-1.016;2023-08-06T10:30:33;100271.88;;;20.34;55.73
65718;BME280;52445;52.466;-1.016;2023-08-06T10:33:02;100268.88;;;20.43;55.40
65718;BME280;52445;52.466;-1.016;2023-08-06T10:35:47;100262.03;;;20.39;53.82
65718;BME280;52445;52.466;-1.016;2023-08-06T10:38:18;100270.97;;;20.35;54.44
65718;BME280;52445;52.466;-1.016;2023-08-06T10:41:01;100268.59;;;20.28;54.91
65718;BME280;52445;52.466;-1.016;2023-08-06T10:46:10;100277.19;;;20.10;55.45
65718;BME280;52445;52.466;-1.016;2023-08-06T10:51:13;100277.75;;;19.94;56.06
65718;BME280;52445;52.466;-1.016;2023-08-06T10:53:44;100274.31;;;19.92;56.42
65718;BME280;52445;52.466;-1.016;2023-08-06T10:56:16;100275.25;;;19.91;56.82
65718;BME280;52445;52.466;-1.016;2023-08-06T10:58:45;100272.50;;;19.94;57.45
65718;BME280;52445;52.466;-1.016;2023-08-06T11:01:12;100270.09;;;20.12;57.31
65718;BME280;52445;52.466;-1.016;2023-08-06T11:03:39;100271.56;;;20.19;57.40
65718;BME280;52445;52.466;-1.016;2023-08-06T11:06:07;100271.56;;;20.19;57.18
65718;BME280;52445;52.466;-1.016;2023-08-06T11:08:36;100268.88;;;20.21;57.40
65718;BME280;52445;52.466;-1.016;2023-08-06T11:11:12;100273.75;;;20.08;56.32
65718;BME280;52445;52.466;-1.016;2023-08-06T11:13:40;100278.53;;;19.96;57.21
65718;BME280;52445;52.466;-1.016;2023-08-06T11:16:08;100279.13;;;19.81;57.19
65718;BME280;52445;52.466;-1.016;2023-08-06T11:18:35;100276.88;;;19.71;57.50
65718;BME280;52445;52.466;-1.016;2023-08-06T11:21:02;100276.97;;;19.68;57.75
65718;BME280;52445;52.466;-1.016;2023-08-06T11:23:29;100280.28;;;19.73;58.22
65718;BME280;52445;52.466;-1.016;2023-08-06T11:25:57;100285.19;;;19.83;58.50
65718;BME280;52445;52.466;-1.016;2023-08-06T11:28:24;100278.50;;;19.98;58.80
65718;BME280;52445;52.466;-1.016;2023-08-06T11:30:51;100283.38;;;20.09;58.63
65718;BME280;52445;52.466;-1.016;2023-08-06T11:33:21;100287.22;;;20.22;58.78
65718;BME280;52445;52.466;-1.016;2023-08-06T11:35:49;100290.28;;;20.34;58.27
65718;BME280;52445;52.466;-1.016;2023-08-06T11:38:16;100291.75;;;20.41;58.19
65718;BME280;52445;52.466;-1.016;2023-08-06T11:40:44;100293.34;;;20.45;57.78
65718;BME280;52445;52.466;-1.016;2023-08-06T11:43:12;100287.09;;;20.48;57.92
65718;BME280;52445;52.466;-1.016;2023-08-06T11:45:39;100278.44;;;20.46;57.49
65718;BME280;52445;52.466;-1.016;2023-08-06T11:48:07;100280.59;;;20.36;57.05
65718;BME280;52445;52.466;-1.016;2023-08-06T11:50:37;100282.56;;;20.29;57.19
65718;BME280;52445;52.466;-1.016;2023-08-06T11:53:05;100289.09;;;20.20;57.68
65718;BME280;52445;52.466;-1.016;2023-08-06T11:55:32;100284.97;;;20.13;57.72
65718;BME280;52445;52.466;-1.016;2023-08-06T11:58:03;100293.97;;;20.07;57.58
65718;BME280;52445;52.466;-1.016;2023-08-06T12:00:30;100292.38;;;20.03;57.97
65718;BME280;52445;52.466;-1.016;2023-08-06T12:02:57;100285.44;;;20.00;57.94
65718;BME280;52445;52.466;-1.016;2023-08-06T12:05:29;100288.16;;;19.97;57.90
65718;BME280;52445;52.466;-1.016;2023-08-06T12:07:57;100297.09;;;19.93;58.15
65718;BME280;52445;52.466;-1.016;2023-08-06T12:10:26;100295.34;;;19.92;58.46
65718;BME280;52445;52.466;-1.016;2023-08-06T12:12:53;100303.81;;;20.00;58.21
65718;BME280;52445;52.466;-1.016;2023-08-06T12:15:20;100296.66;;;20.06;58.50
65718;BME280;52445;52.466;-1.016;2023-08-06T12:17:47;100299.28;;;20.06;58.13
65718;BME280;52445;52.466;-1.016;2023-08-06T12:20:15;100293.31;;;20.00;58.06
65718;BME280;52445;52.466;-1.016;2023-08-06T12:22:41;100304.16;;;19.91;57.64
65718;BME280;52445;52.466;-1.016;2023-08-06T12:25:10;100300.16;;;19.81;57.75
65718;BME280;52445;52.466;-1.016;2023-08-06T12:27:39;100301.13;;;19.78;58.08
65718;BME280;52445;52.466;-1.016;2023-08-06T12:30:08;100304.84;;;19.72;57.98
65718;BME280;52445;52.466;-1.016;2023-08-06T12:32:35;100299.94;;;19.63;58.21
65718;BME280;52445;52.466;-1.016;2023-08-06T12:35:02;100303.59;;;19.59;58.10
65718;BME280;52445;52.466;-1.016;2023-08-06T12:37:29;100308.94;;;19.56;57.81
65718;BME280;52445;52.466;-1.016;2023-08-06T12:39:56;100308.94;;;19.56;58.11
65718;BME280;52445;52.466;-1.016;2023-08-06T12:42:23;100306.44;;;19.52;58.07
65718;BME280;52445;52.466;-1.016;2023-08-06T12:44:51;100305.47;;;19.55;58.34
65718;BME280;52445;52.466;-1.016;2023-08-06T12:47:18;100311.44;;;19.60;58.66
65718;BME280;52445;52.466;-1.016;2023-08-06T12:49:45;100312.88;;;19.68;58.74
65718;BME280;52445;52.466;-1.016;2023-08-06T12:52:12;100307.41;;;19.74;58.28
65718;BME280;52445;52.466;-1.016;2023-08-06T12:54:41;100302.16;;;19.74;58.19